createdAt,value
2022-07-30T00:02:13.069Z,99991
2022-07-30T00:07:13.099Z,99991
2022-07-30T00:12:13.079Z,99992
2022-07-30T00:17:13.141Z,99992
2022-07-30T00:22:13.126Z,99998
2022-07-30T00:27:13.104Z,99995
2022-07-30T00:32:13.103Z,99995
2022-07-30T00:37:13.116Z,99983
2022-07-30T00:42:13.101Z,99985
2022-07-30T00:47:13.150Z,99984
2022-07-30T00:52:13.132Z,99985
2022-07-30T00:57:13.126Z,99988
2022-07-30T01:02:13.230Z,99988
2022-07-30T01:07:13.127Z,99973
2022-07-30T01:12:13.137Z,99974
2022-07-30T01:17:13.147Z,99970
2022-07-30T01:22:13.120Z,99969
2022-07-30T01:27:15.714Z,99978
2022-07-30T01:32:13.208Z,99994
2022-07-30T01:37:13.138Z,99992
2022-07-30T01:42:13.132Z,99993
2022-07-30T01:47:13.174Z,99985
2022-07-30T01:52:13.111Z,99973
2022-07-30T01:57:13.177Z,99968
2022-07-30T02:02:13.211Z,99958
2022-07-30T02:07:13.171Z,99949
2022-07-30T02:12:13.177Z,99939
2022-07-30T02:17:18.907Z,99935
2022-07-30T02:22:13.183Z,99939
2022-07-30T02:27:13.153Z,99935
2022-07-30T02:32:13.191Z,99928
2022-07-30T02:37:13.177Z,99918
2022-07-30T02:42:13.154Z,99919
2022-07-30T02:47:13.249Z,99925
2022-07-30T02:52:13.417Z,99922
2022-07-30T02:57:13.202Z,99929
2022-07-30T03:02:14.579Z,99923
2022-07-30T03:07:13.189Z,99925
2022-07-30T03:12:13.209Z,99925
2022-07-30T03:17:13.170Z,99932
2022-07-30T03:22:13.204Z,99930
2022-07-30T03:27:13.217Z,99922
2022-07-30T03:32:13.651Z,99918
2022-07-30T03:37:13.194Z,99922
2022-07-30T03:42:13.233Z,99923
2022-07-30T03:47:13.218Z,99920
2022-07-30T03:52:13.308Z,99911
2022-07-30T03:57:15.331Z,99911
2022-07-30T04:02:13.312Z,99912
2022-07-30T04:07:13.214Z,99912
2022-07-30T04:12:13.253Z,99926
2022-07-30T04:17:13.309Z,99932
2022-07-30T04:22:13.238Z,99932
2022-07-30T04:27:13.254Z,99935
2022-07-30T04:32:13.200Z,99942
2022-07-30T04:37:13.239Z,99938
2022-07-30T04:42:13.253Z,99944
2022-07-30T04:47:13.300Z,99943
2022-07-30T04:52:13.284Z,99943
2022-07-30T04:57:13.630Z,99932
2022-07-30T05:02:13.274Z,99934
2022-07-30T05:07:13.270Z,99919
2022-07-30T05:12:13.277Z,99919
2022-07-30T05:17:13.269Z,99926
2022-07-30T05:22:13.249Z,99926
2022-07-30T05:27:13.285Z,99933
2022-07-30T05:32:13.269Z,99942
2022-07-30T05:37:13.249Z,99942
2022-07-30T05:42:13.302Z,99957
2022-07-30T05:47:13.268Z,99954
2022-07-30T05:52:13.313Z,99953
2022-07-30T05:57:13.296Z,99961
2022-07-30T06:02:13.363Z,99965
2022-07-30T06:07:13.321Z,99964
2022-07-30T06:12:13.293Z,99960
2022-07-30T06:17:13.286Z,99965
2022-07-30T06:22:13.306Z,99964
2022-07-30T06:27:13.326Z,99963
2022-07-30T06:32:13.298Z,99975
2022-07-30T06:37:13.315Z,99977
2022-07-30T06:42:13.293Z,99977
2022-07-30T06:47:13.513Z,99976
2022-07-30T06:52:18.315Z,99971
2022-07-30T06:57:13.328Z,99973
2022-07-30T07:02:13.362Z,99974
2022-07-30T07:07:13.739Z,99974
2022-07-30T07:12:13.384Z,99979
2022-07-30T07:17:13.485Z,99974
2022-07-30T07:22:13.329Z,99957
2022-07-30T07:27:15.394Z,99944
2022-07-30T07:32:13.504Z,99944
2022-07-30T07:37:13.394Z,99941
2022-07-30T07:42:13.353Z,99946
2022-07-30T07:47:13.344Z,99935
2022-07-30T07:52:13.396Z,99931
2022-07-30T07:57:15.268Z,99933
2022-07-30T08:02:13.349Z,99939
2022-07-30T08:07:13.353Z,99939
2022-07-30T08:12:13.381Z,99979
2022-07-30T08:17:13.588Z,99993
2022-07-30T08:22:13.381Z,99991
2022-07-30T08:27:13.472Z,99978
2022-07-30T08:32:13.371Z,99968
2022-07-30T08:37:14.112Z,99967
2022-07-30T08:42:13.395Z,99983
2022-07-30T08:47:13.357Z,99999
2022-07-30T08:52:13.378Z,99999
2022-07-30T08:57:13.410Z,100007
2022-07-30T09:02:13.777Z,99992
2022-07-30T09:07:13.390Z,99992
2022-07-30T09:12:13.415Z,99996
2022-07-30T09:17:13.449Z,99996
2022-07-30T09:22:13.407Z,99992
2022-07-30T09:27:13.414Z,99992
2022-07-30T09:32:13.408Z,99989
2022-07-30T09:37:13.406Z,99993
2022-07-30T09:42:13.432Z,99993
2022-07-30T09:47:13.403Z,99998
2022-07-30T09:52:13.445Z,99994
2022-07-30T09:57:22.909Z,99990
2022-07-30T10:02:13.461Z,99990
2022-07-30T10:07:13.471Z,100019
2022-07-30T10:12:13.461Z,100019
2022-07-30T10:17:13.485Z,100066
2022-07-30T10:22:13.469Z,100032
2022-07-30T10:27:13.419Z,99992
2022-07-30T10:32:13.433Z,100004
2022-07-30T10:37:13.440Z,100005
2022-07-30T10:42:13.442Z,100024
2022-07-30T10:47:13.416Z,100021
2022-07-30T10:52:13.445Z,100012
2022-07-30T10:57:15.205Z,100025
2022-07-30T11:02:13.453Z,100016
2022-07-30T11:07:17.262Z,99998
2022-07-30T11:12:15.811Z,99984
2022-07-30T11:17:13.452Z,99977
2022-07-30T11:22:13.472Z,99962
2022-07-30T11:27:13.427Z,99965
2022-07-30T11:32:13.843Z,99947
2022-07-30T11:37:18.816Z,99931
2022-07-30T11:42:13.471Z,99935
2022-07-30T11:47:13.464Z,99938
2022-07-30T11:52:13.438Z,99951
2022-07-30T11:57:13.557Z,99951
2022-07-30T12:07:13.498Z,99919
2022-07-30T12:12:13.508Z,99901
2022-07-30T12:17:15.514Z,99896
2022-07-30T12:22:13.455Z,99890
2022-07-30T12:27:13.504Z,99883
2022-07-30T12:32:13.487Z,99887
2022-07-30T12:37:13.589Z,99878
2022-07-30T12:42:13.499Z,99880
2022-07-30T12:47:13.492Z,99875
2022-07-30T12:52:13.581Z,99871
2022-07-30T12:57:13.531Z,99871
2022-07-30T13:02:13.560Z,99869
2022-07-30T13:07:13.518Z,99882
2022-07-30T13:12:13.512Z,99887
2022-07-30T13:17:13.526Z,99896
2022-07-30T13:22:13.486Z,99903
2022-07-30T13:27:13.522Z,99887
2022-07-30T13:32:13.567Z,99848
2022-07-30T13:37:13.535Z,99826
2022-07-30T13:42:13.542Z,99831
2022-07-30T13:47:13.547Z,99831
2022-07-30T13:52:13.617Z,99838
2022-07-30T13:57:13.550Z,99844
2022-07-30T14:02:13.528Z,99862
2022-07-30T14:07:13.821Z,99879
2022-07-30T14:12:13.517Z,99889
2022-07-30T14:17:13.550Z,99896
2022-07-30T14:22:13.627Z,99896
2022-07-30T14:27:13.549Z,99910
2022-07-30T14:32:13.581Z,99910
2022-07-30T14:37:14.235Z,99897
2022-07-30T14:42:13.548Z,99896
2022-07-30T14:47:13.588Z,99896
2022-07-30T14:52:13.575Z,99879
2022-07-30T14:57:13.605Z,99876
2022-07-30T15:02:13.650Z,99870
2022-07-30T15:07:13.778Z,99870
2022-07-30T15:12:13.579Z,99887
2022-07-30T15:17:13.605Z,99887
2022-07-30T15:22:13.596Z,99884
2022-07-30T15:27:13.607Z,99897
2022-07-30T15:32:13.621Z,99895
2022-07-30T15:37:13.554Z,99889
2022-07-30T15:42:13.592Z,99891
2022-07-30T15:47:13.633Z,99891
2022-07-30T15:52:13.623Z,99911
2022-07-30T15:57:13.606Z,99918
2022-07-30T16:02:13.632Z,99916
2022-07-30T16:07:13.659Z,99926
2022-07-30T16:12:13.694Z,99925
2022-07-30T16:17:13.971Z,99925
2022-07-30T16:22:14.996Z,99929
2022-07-30T16:27:13.619Z,99931
2022-07-30T16:32:13.712Z,99931
2022-07-30T16:37:13.589Z,99927
2022-07-30T16:42:13.661Z,99934
2022-07-30T16:47:14.032Z,99939
2022-07-30T16:52:13.721Z,99941
2022-07-30T16:57:13.625Z,99936
2022-07-30T17:02:13.660Z,99937
2022-07-30T17:12:13.636Z,99937
2022-07-30T17:17:14.492Z,99946
2022-07-30T17:22:13.662Z,99949
2022-07-30T17:27:13.630Z,99947
2022-07-30T17:32:13.662Z,99937
2022-07-30T17:37:13.666Z,99922
2022-07-30T17:42:13.974Z,99920
2022-07-30T17:47:15.154Z,99908
2022-07-30T17:52:13.672Z,99896
2022-07-30T17:57:13.685Z,99904
2022-07-30T18:02:13.732Z,99904
2022-07-30T18:07:13.676Z,99895
2022-07-30T18:12:13.699Z,99902
2022-07-30T18:17:14.498Z,99897
2022-07-30T18:22:14.877Z,99893
2022-07-30T18:27:13.702Z,99897
2022-07-30T18:32:13.681Z,99900
2022-07-30T18:37:13.668Z,99900
2022-07-30T18:42:13.717Z,99912
2022-07-30T18:47:13.720Z,99909
2022-07-30T18:52:13.719Z,99916
2022-07-30T18:57:14.624Z,99921
2022-07-30T19:02:13.715Z,99926
2022-07-30T19:07:13.695Z,99932
2022-07-30T19:12:13.758Z,99945
2022-07-30T19:17:15.373Z,99945
2022-07-30T19:22:13.724Z,99949
2022-07-30T19:27:14.432Z,99949
2022-07-30T19:32:13.732Z,99955
2022-07-30T19:37:13.745Z,99955
2022-07-30T19:42:13.728Z,99958
2022-07-30T19:52:22.808Z,99964
2022-07-30T19:57:13.745Z,99970
2022-07-30T20:02:13.844Z,99967
2022-07-30T20:07:13.837Z,99967
2022-07-30T20:12:13.715Z,99968
2022-07-30T20:17:13.766Z,99962
2022-07-30T20:22:13.805Z,99962
2022-07-30T20:27:37.155Z,99946
2022-07-30T20:32:13.752Z,99939
2022-07-30T20:37:21.454Z,99940
2022-07-30T20:42:13.769Z,99947
2022-07-30T20:47:13.759Z,99949
2022-07-30T20:52:13.774Z,99950
2022-07-30T20:57:15.515Z,99944
2022-07-30T21:02:15.197Z,99944
2022-07-30T21:07:13.739Z,99949
2022-07-30T21:12:13.774Z,99944
2022-07-30T21:17:13.774Z,99945
2022-07-30T21:22:13.769Z,99945
2022-07-30T21:27:13.776Z,99948
2022-07-30T21:32:14.058Z,99948
2022-07-30T21:37:15.674Z,99947
2022-07-30T21:42:13.785Z,99950
2022-07-30T21:47:13.760Z,99948
2022-07-30T21:52:13.784Z,99951
2022-07-30T21:57:13.803Z,99946
2022-07-30T22:02:15.836Z,99953
2022-07-30T22:07:13.772Z,99952
2022-07-30T22:12:18.327Z,99950
2022-07-30T22:17:22.715Z,99951
2022-07-30T22:22:27.177Z,99941
2022-07-30T22:27:14.913Z,99933
2022-07-30T22:32:13.826Z,99937
2022-07-30T22:37:16.361Z,99933
2022-07-30T22:42:13.792Z,99931
2022-07-30T22:47:21.893Z,99923
2022-07-30T22:52:20.183Z,99916
2022-07-30T22:57:13.824Z,99911
2022-07-30T23:02:13.920Z,99912
2022-07-30T23:07:13.922Z,99911
2022-07-30T23:12:13.830Z,99911
2022-07-30T23:17:13.835Z,99902
2022-07-30T23:22:13.832Z,99902
2022-07-30T23:27:13.807Z,99886
2022-07-30T23:32:13.847Z,99885
2022-07-30T23:42:13.933Z,99877
2022-07-30T23:52:13.895Z,99877
2022-07-30T23:57:13.819Z,99881
